Historique des mesures à Cassis (13260), France
Quotidien Résumé Juillet 13, 2017 Unités:  Métrique    US   Métrique/US
« Précédent (Jour)
Suivant (Jour) »
Quotidien Hebdomadaire Mensuel Annuel Période au choix
  Maximum: Minimum: Moyenne:
Température: TemperatureC °C 22.8 °C 25.4 °C
Point de rosée: DewpointC °C 12.8 °C 14.6 °C
Humidité: Humidity % 38 % 49 %
Vitesse du vent: 0 km/h 1.8 km/h 26.7 km/h
Rafales: 0 km/h - -
Vent:- - SSW
Pression: PressurehPa hPa 1008.7 hPa -
Précipitations: 0.0 mm    
Historical Graphs
 
 
Mesures pour : Juillet 13, 2017
Heure Temperature Point de rosée Pression Vent Vitesse du vent Rafales Humidité Pluie (par heure) Conditions
TemperatureC °C DewpointC °C PressurehPa hPa Calm     Humidity % HourlyPrecipMM mm SoftwareType W/m2
00:11 27.2 °C 15.6 °C 1011.1 hPa West 20.3 km/h 20.3 km/h 49 % 0.0 mm open2300-1.11 W/m2
01:11 25.8 °C 15.2 °C 1011.4 hPa West 22 km/h 31.9 km/h 52 % 0.0 mm open2300-1.11 W/m2
02:11 24.6 °C 14.9 °C 1010.7 hPa NNE 19.2 km/h 21.6 km/h 55 % 0.0 mm open2300-1.11 W/m2
03:11 24.3 °C 14.7 °C 1010.0 hPa North 26.7 km/h 28.5 km/h 55 % 0.0 mm open2300-1.11 W/m2
04:11 23.8 °C 14.5 °C 1010.0 hPa NNE 20.9 km/h 37.5 km/h 56 % 0.0 mm open2300-1.11 W/m2
05:11 23.4 °C 14.9 °C 1010.0 hPa NW 32.3 km/h 32.3 km/h 59 % 0.0 mm open2300-1.11 W/m2
06:11 23.1 °C 14.9 °C 1010.0 hPa NW 20.9 km/h 20.9 km/h 60 % 0.0 mm open2300-1.11 W/m2
07:11 22.8 °C 14.6 °C 1010.4 hPa WNW 36.5 km/h 37.5 km/h 60 % 0.0 mm open2300-1.11 W/m2
08:11 23.8 °C 15.1 °C 1010.4 hPa North 9.8 km/h 47.3 km/h 58 % 0.0 mm open2300-1.11 W/m2
09:11 23.8 °C 14.8 °C 1009.7 hPa NW 44.1 km/h 45.9 km/h 57 % 0.0 mm open2300-1.11 W/m2
10:11 25.4 °C 15.1 °C 1009.7 hPa North 34.1 km/h 40.7 km/h 53 % 0.0 mm open2300-1.11 W/m2
11:11 27.6 °C 15.2 °C 1009.7 hPa North 34.8 km/h 34.8 km/h 47 % 0.0 mm open2300-1.11 W/m2
12:11 28.5 °C 15.4 °C 1009.7 hPa NW 16.3 km/h 33.6 km/h 45 % 0.0 mm open2300-1.11 W/m2
13:11 29.1 °C 15.2 °C 1009.4 hPa North 35.2 km/h 68.9 km/h 43 % 0.0 mm open2300-1.11 W/m2
14:11 30.4 °C 14.9 °C 1009.4 hPa WNW 52 km/h 89.8 km/h 39 % 0.0 mm open2300-1.11 W/m2
15:11 30.9 °C 14.9 °C 1009.4 hPa WNW 52.8 km/h 52.8 km/h 38 % 0.0 mm open2300-1.11 W/m2
16:11 30.4 °C 15.7 °C 1009.4 hPa NW 27.2 km/h 57.9 km/h 41 % 0.0 mm open2300-1.11 W/m2
17:11 28.9 °C 16.1 °C 1009.0 hPa NW 57.9 km/h 57.9 km/h 46 % 0.0 mm open2300-1.11 W/m2
18:11 27.8 °C 16.4 °C 1009.4 hPa WNW 42.2 km/h 55.7 km/h 50 % 0.0 mm open2300-1.11 W/m2
19:11 27.1 °C 16.9 °C 1008.7 hPa NW 15 km/h 38.8 km/h 54 % 0.0 mm open2300-1.11 W/m2
20:11 26.7 °C 16.9 °C 1008.7 hPa NW 17.9 km/h 40.7 km/h 55 % 0.0 mm open2300-1.11 W/m2
21:11 26.3 °C 15.9 °C 1008.7 hPa WNW 1.8 km/h 20.9 km/h 53 % 0.0 mm open2300-1.11 W/m2
22:11 26.8 °C 14.5 °C 1009.0 hPa NE 12.2 km/h 12.2 km/h 47 % 0.0 mm open2300-1.11 W/m2
23:11 27.5 °C 12.8 °C 1009.4 hPa West 16.9 km/h 21.6 km/h 40 % 0.0 mm open2300-1.11 W/m2
Observations météo à CASSIS
WU-History script by Weather Underground - 1 mb